Time;durP1;ratioP1;P1;durP2;ratioP2;P2;SDS_P1;SDS_P2;PMS_P1;PMS_P2;Temp;Humidity;BMP_temperature;BMP_pressure;BME280_temperature;BME280_humidity;BME280_pressure;Samples;Min_cycle;Max_cycle;Signal;HPM_P1;HPM_P2
2022/10/17 04:00:28;;;;;;;10.20;3.77;;;13.20;99.90;;;;;;5932578;23;20484;-75
2022/10/17 04:02:55;;;;;;;7.80;3.50;;;13.20;99.90;;;;;;4908894;29;20459;-75
2022/10/17 04:05:22;;;;;;;7.00;3.10;;;13.10;99.90;;;;;;4909130;29;20464;-74
2022/10/17 04:07:48;;;;;;;6.73;3.10;;;13.20;99.90;;;;;;4909343;29;20788;-75
2022/10/17 04:10:15;;;;;;;6.83;3.37;;;13.20;99.90;;;;;;4908514;29;20455;-75
2022/10/17 04:12:42;;;;;;;8.13;3.70;;;13.20;99.90;;;;;;4890260;29;20841;-75
2022/10/17 04:15:10;;;;;;;5.57;3.00;;;13.20;99.90;;;;;;4889824;29;20987;-75
2022/10/17 04:17:38;;;;;;;5.67;3.57;;;13.10;99.90;;;;;;4889778;29;21051;-74
2022/10/17 04:20:06;;;;;;;3.90;3.27;;;13.10;99.90;;;;;;4889021;29;20465;-75
2022/10/17 04:22:32;;;;;;;6.60;2.70;;;13.10;99.90;;;;;;4890027;29;20766;-73
2022/10/17 04:24:59;;;;;;;6.37;3.70;;;13.10;99.90;;;;;;4889977;29;20467;-75
2022/10/17 04:27:26;;;;;;;8.80;3.30;;;13.10;99.90;;;;;;4890051;29;20484;-75
2022/10/17 04:29:53;;;;;;;5.23;3.50;;;13.10;99.90;;;;;;4889878;29;20464;-75
2022/10/17 04:32:19;;;;;;;6.70;3.50;;;13.10;99.90;;;;;;4890046;29;20492;-75
2022/10/17 04:34:50;;;;;;;9.00;3.40;;;13.10;99.90;;;;;;4889445;29;20890;-75
2022/10/17 04:37:16;;;;;;;7.53;3.60;;;13.10;99.90;;;;;;4890405;29;20496;-75
2022/10/17 04:39:43;;;;;;;3.40;3.10;;;13.00;99.90;;;;;;4889851;29;20468;-74
2022/10/17 04:42:10;;;;;;;6.60;3.20;;;13.00;99.90;;;;;;4889919;29;20953;-74
2022/10/17 04:44:37;;;;;;;12.30;3.70;;;13.00;99.90;;;;;;4889128;29;20961;-76
2022/10/17 04:47:03;;;;;;;7.37;3.00;;;13.00;99.90;;;;;;4889698;29;20456;-76
2022/10/17 04:49:30;;;;;;;4.10;3.03;;;13.00;99.90;;;;;;4889426;29;20737;-72
2022/10/17 04:51:58;;;;;;;6.37;4.10;;;13.00;99.90;;;;;;4890206;29;20744;-76
2022/10/17 04:54:25;;;;;;;6.63;2.97;;;13.00;99.90;;;;;;4889458;29;21108;-75
2022/10/17 04:56:52;;;;;;;11.53;3.40;;;12.90;99.90;;;;;;4889858;29;20873;-75
2022/10/17 04:59:19;;;;;;;4.90;3.80;;;12.90;99.90;;;;;;4890290;29;20824;-75
2022/10/17 05:01:46;;;;;;;7.50;3.37;;;12.90;99.90;;;;;;4893948;29;20496;-76
2022/10/17 05:04:12;;;;;;;5.23;3.47;;;12.90;99.90;;;;;;4896463;29;20492;-76
2022/10/17 05:06:39;;;;;;;7.47;4.47;;;12.90;99.90;;;;;;4901878;29;20550;-77
2022/10/17 05:09:07;;;;;;;7.57;3.70;;;12.80;99.90;;;;;;4919513;29;20463;-76
2022/10/17 05:11:34;;;;;;;7.93;3.97;;;12.80;99.90;;;;;;4919959;29;20482;-76
2022/10/17 05:14:02;;;;;;;4.60;3.47;;;12.80;99.90;;;;;;4919276;29;20470;-77
2022/10/17 05:16:30;;;;;;;6.43;3.73;;;12.80;99.90;;;;;;4914469;29;20469;-78
2022/10/17 05:18:58;;;;;;;6.57;4.10;;;12.80;99.90;;;;;;4914377;29;20498;-77
2022/10/17 05:21:26;;;;;;;8.77;3.43;;;12.80;99.90;;;;;;4914707;29;20975;-77
2022/10/17 05:23:53;;;;;;;12.03;3.90;;;12.70;99.90;;;;;;4914705;29;20465;-71
2022/10/17 05:26:21;;;;;;;11.60;4.23;;;12.70;99.90;;;;;;4911627;29;20466;-71
2022/10/17 05:28:48;;;;;;;7.13;3.77;;;12.70;99.90;;;;;;4913723;29;20565;-79
2022/10/17 05:31:15;;;;;;;7.23;3.40;;;12.70;99.90;;;;;;4913695;29;20497;-75
2022/10/17 05:33:42;;;;;;;5.57;2.90;;;12.70;99.90;;;;;;4912724;29;20952;-76
2022/10/17 05:36:09;;;;;;;6.97;3.97;;;12.70;99.90;;;;;;4912713;29;20470;-75
2022/10/17 05:38:36;;;;;;;10.40;3.77;;;12.70;99.90;;;;;;4912393;29;20584;-77
2022/10/17 05:41:05;;;;;;;9.20;3.67;;;12.70;99.90;;;;;;4912030;29;21503;-74
2022/10/17 05:43:34;;;;;;;15.83;4.57;;;12.70;99.90;;;;;;4912024;29;20478;-74
2022/10/17 05:46:04;;;;;;;8.50;4.30;;;12.70;99.90;;;;;;4911644;29;20514;-77
2022/10/17 05:48:32;;;;;;;10.07;4.33;;;12.70;99.90;;;;;;4912304;29;20443;-75
2022/10/17 05:50:59;;;;;;;8.60;4.13;;;12.70;99.90;;;;;;4912145;29;20490;-76
2022/10/17 05:53:26;;;;;;;8.77;4.70;;;12.70;99.90;;;;;;4912613;29;20887;-77
2022/10/17 05:55:57;;;;;;;8.60;5.30;;;12.70;99.90;;;;;;4912156;29;20471;-76
2022/10/17 05:58:24;;;;;;;8.80;4.80;;;12.70;99.90;;;;;;4913206;29;20580;-76
2022/10/17 06:00:57;;;;;;;17.83;6.67;;;12.70;99.90;;;;;;4913038;29;20500;-77
2022/10/17 06:03:23;;;;;;;13.87;4.80;;;12.70;99.90;;;;;;4900949;29;20703;-76
2022/10/17 06:05:51;;;;;;;14.57;3.70;;;12.70;99.90;;;;;;4892891;29;20500;-77
2022/10/17 06:08:18;;;;;;;7.70;3.90;;;12.70;99.90;;;;;;4893469;29;21191;-76
2022/10/17 06:10:48;;;;;;;8.50;3.93;;;12.70;99.90;;;;;;4893350;29;20997;-75
2022/10/17 06:13:15;;;;;;;5.00;3.30;;;12.80;99.90;;;;;;4893537;29;20464;-76
2022/10/17 06:15:41;;;;;;;10.40;3.90;;;12.70;99.90;;;;;;4892938;29;20468;-76
2022/10/17 06:18:10;;;;;;;10.30;3.73;;;12.70;99.90;;;;;;4893457;29;20508;-75
2022/10/17 06:20:38;;;;;;;6.57;3.90;;;12.80;99.90;;;;;;4893309;29;20496;-73
2022/10/17 06:23:05;;;;;;;14.10;3.93;;;12.80;99.90;;;;;;4894295;29;20472;-77
2022/10/17 06:25:32;;;;;;;10.33;3.30;;;12.80;99.90;;;;;;4893902;29;20468;-77
2022/10/17 06:27:59;;;;;;;5.33;3.10;;;12.80;99.90;;;;;;4893730;29;20465;-78
2022/10/17 06:30:25;;;;;;;7.57;3.20;;;12.70;99.90;;;;;;4893897;29;20464;-77
2022/10/17 06:32:53;;;;;;;7.90;3.27;;;12.80;99.90;;;;;;4893652;29;20464;-76
2022/10/17 06:35:21;;;;;;;8.10;3.73;;;12.70;99.90;;;;;;4892981;29;20563;-77
2022/10/17 06:37:48;;;;;;;9.73;3.20;;;12.80;99.90;;;;;;4893491;29;20496;-77
2022/10/17 06:40:16;;;;;;;7.17;3.87;;;12.80;99.90;;;;;;4893761;29;21202;-74
2022/10/17 06:42:43;;;;;;;5.50;3.40;;;12.80;99.90;;;;;;4893639;29;20467;-77
2022/10/17 06:45:10;;;;;;;9.40;4.47;;;12.80;99.90;;;;;;4893115;29;20468;-77
2022/10/17 06:47:37;;;;;;;6.00;3.60;;;12.80;99.90;;;;;;4893784;29;20460;-76
2022/10/17 06:50:04;;;;;;;8.40;3.93;;;12.80;99.90;;;;;;4893455;29;20470;-73
2022/10/17 06:52:33;;;;;;;9.30;4.17;;;12.80;99.90;;;;;;4893601;29;20522;-75
2022/10/17 06:54:59;;;;;;;11.70;4.00;;;12.80;99.90;;;;;;4893348;29;20468;-76
2022/10/17 06:57:27;;;;;;;8.80;3.30;;;12.80;99.90;;;;;;4893786;29;20503;-77
2022/10/17 06:59:54;;;;;;;6.47;3.63;;;12.80;99.90;;;;;;4893017;29;20472;-76
2022/10/17 07:02:22;;;;;;;8.60;4.40;;;12.80;99.90;;;;;;4893210;29;20527;-77
2022/10/17 07:04:49;;;;;;;5.43;4.47;;;12.80;99.90;;;;;;4892500;29;20491;-76
2022/10/17 07:07:16;;;;;;;5.20;3.97;;;12.80;99.90;;;;;;4892977;29;20976;-75
2022/10/17 07:09:44;;;;;;;10.20;4.17;;;12.80;99.90;;;;;;4892888;29;20464;-77
2022/10/17 07:12:11;;;;;;;7.17;4.00;;;12.90;99.90;;;;;;4893018;29;20482;-75
2022/10/17 07:14:38;;;;;;;11.10;4.10;;;12.90;99.90;;;;;;4892831;29;20468;-75
2022/10/17 07:17:05;;;;;;;9.40;4.23;;;13.00;99.90;;;;;;4893536;29;20468;-77
2022/10/17 07:19:32;;;;;;;7.30;4.47;;;13.00;99.90;;;;;;4892983;29;20503;-77
2022/10/17 07:22:01;;;;;;;10.57;4.30;;;13.00;99.90;;;;;;4893166;29;20484;-78
2022/10/17 07:24:28;;;;;;;9.17;4.37;;;13.00;99.90;;;;;;4892535;29;20464;-77
2022/10/17 07:26:56;;;;;;;8.73;4.20;;;13.10;99.90;;;;;;4892777;29;20460;-75
2022/10/17 07:29:22;;;;;;;7.57;4.27;;;13.10;99.90;;;;;;4892775;29;20464;-76
2022/10/17 07:31:50;;;;;;;7.20;4.33;;;13.10;99.90;;;;;;4891584;29;20493;-78
2022/10/17 07:34:17;;;;;;;10.03;4.13;;;13.20;99.90;;;;;;4891781;29;21103;-76
2022/10/17 07:36:44;;;;;;;8.40;4.40;;;13.20;99.90;;;;;;4892107;29;20510;-77
2022/10/17 07:39:11;;;;;;;19.53;4.97;;;13.30;99.90;;;;;;4891737;29;20501;-76
2022/10/17 07:41:38;;;;;;;12.23;4.60;;;13.40;99.90;;;;;;4891411;29;20499;-75
2022/10/17 07:44:07;;;;;;;10.73;4.30;;;13.50;99.90;;;;;;4891924;29;20471;-76
2022/10/17 07:46:34;;;;;;;6.73;4.47;;;13.50;99.90;;;;;;4892475;29;20467;-77
2022/10/17 07:49:00;;;;;;;13.53;4.43;;;13.60;99.90;;;;;;4892365;29;20468;-77
2022/10/17 07:51:27;;;;;;;24.23;5.47;;;13.60;99.90;;;;;;4892284;29;20484;-75
2022/10/17 07:53:54;;;;;;;6.50;4.57;;;13.70;99.90;;;;;;4892518;29;20468;-78
2022/10/17 07:56:23;;;;;;;8.83;5.13;;;13.80;99.90;;;;;;4893278;29;20819;-77
2022/10/17 07:58:50;;;;;;;10.80;4.90;;;13.80;99.90;;;;;;4892560;29;20582;-77
2022/10/17 08:01:18;;;;;;;6.63;4.30;;;14.00;99.90;;;;;;4892320;29;20492;-77
2022/10/17 08:03:47;;;;;;;11.23;4.40;;;14.10;99.90;;;;;;4893533;29;20837;-77
2022/10/17 08:06:14;;;;;;;10.20;3.90;;;14.20;99.90;;;;;;4892725;29;20923;-77
2022/10/17 08:08:41;;;;;;;7.27;3.30;;;14.30;99.90;;;;;;4892562;29;20452;-78
2022/10/17 08:11:11;;;;;;;8.30;4.60;;;14.40;99.90;;;;;;4892436;29;20493;-76
2022/10/17 08:13:41;;;;;;;10.10;3.77;;;14.50;99.90;;;;;;4892498;29;20957;-76
2022/10/17 08:16:10;;;;;;;11.57;4.20;;;14.60;99.90;;;;;;4891963;29;20475;-77
2022/10/17 08:18:40;;;;;;;5.77;4.23;;;14.70;99.90;;;;;;4892475;29;20503;-78
2022/10/17 08:21:08;;;;;;;4.87;3.57;;;14.90;99.90;;;;;;4892745;29;20480;-77
2022/10/17 08:23:54;;;;;;;8.70;3.40;;;15.00;99.90;;;;;;4893051;29;20508;-75
2022/10/17 08:26:21;;;;;;;6.90;4.27;;;15.20;99.90;;;;;;4892714;29;20468;-77
2022/10/17 08:28:48;;;;;;;14.93;3.60;;;15.30;99.90;;;;;;4893392;29;21087;-79
2022/10/17 08:31:18;;;;;;;10.90;3.90;;;15.50;99.90;;;;;;4893761;29;20502;-78
2022/10/17 08:33:46;;;;;;;7.30;4.13;;;15.60;99.90;;;;;;4893652;29;20528;-78
2022/10/17 08:36:16;;;;;;;8.03;4.43;;;15.70;99.90;;;;;;4892303;29;20460;-79
2022/10/17 08:38:43;;;;;;;11.10;3.97;;;15.90;99.90;;;;;;4892200;29;20507;-79
2022/10/17 08:41:15;;;;;;;12.13;3.30;;;16.00;99.90;;;;;;4893773;29;20480;-77
2022/10/17 08:43:53;;;;;;;6.03;3.60;;;16.20;99.90;;;;;;4897408;29;21262;-78
2022/10/17 08:46:20;;;;;;;6.83;3.13;;;16.30;99.90;;;;;;4897184;29;20455;-77
2022/10/17 08:48:51;;;;;;;7.50;3.30;;;16.40;99.90;;;;;;4896505;29;20500;-77
2022/10/17 08:51:23;;;;;;;7.33;3.30;;;16.50;99.90;;;;;;4895837;29;20499;-75
2022/10/17 08:53:55;;;;;;;3.83;2.90;;;16.60;99.90;;;;;;4895498;29;20464;-77
2022/10/17 08:56:38;;;;;;;5.30;2.60;;;16.80;99.90;;;;;;4913251;29;20532;-77
2022/10/17 08:59:05;;;;;;;4.70;2.80;;;16.90;99.90;;;;;;4915276;29;20486;-74
2022/10/17 09:01:37;;;;;;;5.30;2.80;;;17.10;99.90;;;;;;4914774;29;20501;-76
2022/10/17 09:04:37;;;;;;;7.10;3.20;;;17.30;99.90;;;;;;4914466;29;20451;-74
2022/10/17 09:07:10;;;;;;;10.10;2.70;;;17.50;99.90;;;;;;4910705;29;20463;-79
2022/10/17 09:09:45;;;;;;;5.50;2.37;;;17.60;99.90;;;;;;4916715;29;21024;-79
2022/10/17 09:12:17;;;;;;;4.13;2.60;;;17.80;99.90;;;;;;4916527;29;20481;-79
2022/10/17 09:14:57;;;;;;;7.00;2.43;;;17.90;99.90;;;;;;4915730;29;20499;-79
2022/10/17 09:17:34;;;;;;;5.17;2.70;;;18.10;99.90;;;;;;4916512;29;20455;-79
2022/10/17 09:20:09;;;;;;;9.10;2.27;;;18.20;99.90;;;;;;4916273;29;20482;-77
2022/10/17 09:22:42;;;;;;;7.80;2.97;;;18.50;99.90;;;;;;4915160;29;20478;-79
2022/10/17 09:25:12;;;;;;;3.57;2.40;;;18.70;99.90;;;;;;4915282;29;20475;-79
2022/10/17 09:27:44;;;;;;;6.53;2.83;;;18.70;99.90;;;;;;4915581;29;20467;-78
2022/10/17 09:30:30;;;;;;;6.70;2.57;;;18.80;99.90;;;;;;4915321;29;20454;-77
2022/10/17 09:32:57;;;;;;;6.97;2.40;;;18.90;99.90;;;;;;4914716;29;20466;-78
2022/10/17 09:35:27;;;;;;;3.37;2.00;;;19.00;99.90;;;;;;4913848;29;20465;-77
2022/10/17 09:37:55;;;;;;;5.30;2.10;;;19.10;99.90;;;;;;4914330;29;20440;-77
2022/10/17 09:40:26;;;;;;;6.63;2.30;;;19.10;99.90;;;;;;4914547;29;20485;-78
2022/10/17 09:42:53;;;;;;;7.43;2.13;;;19.20;99.90;;;;;;4914281;29;20924;-82
2022/10/17 09:45:24;;;;;;;5.13;2.37;;;19.30;99.90;;;;;;4913402;29;21102;-78
2022/10/17 09:47:59;;;;;;;5.00;2.37;;;19.40;99.90;;;;;;4912061;29;20467;-77
2022/10/17 09:50:30;;;;;;;6.37;2.10;;;19.50;99.90;;;;;;4911779;29;20470;-77
2022/10/17 09:53:00;;;;;;;4.70;2.30;;;19.70;99.90;;;;;;4911731;29;20466;-77
2022/10/17 09:55:34;;;;;;;4.70;2.37;;;19.90;99.90;;;;;;4911040;29;20938;-77
2022/10/17 09:58:03;;;;;;;4.97;2.30;;;20.20;99.90;;;;;;4912010;29;20454;-77
2022/10/17 10:00:32;;;;;;;7.10;2.20;;;20.30;99.90;;;;;;4912284;29;20832;-77
2022/10/17 10:03:19;;;;;;;4.73;2.73;;;20.80;99.90;;;;;;4912033;29;20455;-75
2022/10/17 10:06:02;;;;;;;7.20;2.67;;;21.10;99.90;;;;;;4911180;29;20565;-75
2022/10/17 10:08:31;;;;;;;2.37;2.00;;;21.20;99.90;;;;;;4912032;29;20443;-77
2022/10/17 10:11:02;;;;;;;5.80;2.37;;;21.60;99.90;;;;;;4912625;29;20506;-78
2022/10/17 10:13:29;;;;;;;5.87;2.13;;;21.70;99.90;;;;;;4912922;29;20475;-78
2022/10/17 10:16:14;;;;;;;6.43;2.43;;;22.10;99.90;;;;;;4911561;29;20832;-78
2022/10/17 10:18:41;;;;;;;4.20;2.17;;;22.20;99.90;;;;;;4911755;29;20491;-75
2022/10/17 10:21:12;;;;;;;3.77;2.50;;;22.20;99.90;;;;;;4910139;29;20499;-75
2022/10/17 10:23:41;;;;;;;3.17;2.13;;;22.30;99.90;;;;;;4911426;29;20473;-75
2022/10/17 10:26:30;;;;;;;4.13;2.37;;;22.40;99.90;;;;;;4910721;29;20956;-70
2022/10/17 10:29:00;;;;;;;8.80;2.30;;;22.50;99.90;;;;;;4907613;29;20499;-72
2022/10/17 10:31:34;;;;;;;5.13;2.47;;;22.70;99.90;;;;;;4910302;29;20483;-71
2022/10/17 10:34:03;;;;;;;3.27;1.93;;;22.80;99.90;;;;;;4891961;29;20453;-73
2022/10/17 10:36:52;;;;;;;6.43;2.20;;;22.90;99.90;;;;;;4892507;29;20491;-71
2022/10/17 10:39:28;;;;;;;6.17;2.50;;;23.00;99.90;;;;;;4892340;29;20595;-71
2022/10/17 10:41:55;;;;;;;5.60;2.17;;;23.00;99.90;;;;;;4892550;29;20484;-72
2022/10/17 10:44:26;;;;;;;3.53;2.03;;;23.20;99.90;;;;;;4891721;29;20845;-69
2022/10/17 10:47:07;;;;;;;3.73;2.03;;;23.40;99.90;;;;;;4892405;29;20456;-72
2022/10/17 10:49:34;;;;;;;3.67;1.83;;;23.40;99.90;;;;;;4892439;29;20448;-69
2022/10/17 10:52:04;;;;;;;2.10;1.57;;;23.50;99.90;;;;;;4892734;29;20499;-69
2022/10/17 10:54:35;;;;;;;3.73;1.53;;;23.60;99.90;;;;;;4891510;29;20487;-68
2022/10/17 10:57:06;;;;;;;2.40;1.80;;;23.80;99.90;;;;;;4890826;29;20949;-71
2022/10/17 10:59:42;;;;;;;3.60;1.80;;;24.00;99.90;;;;;;4891002;29;20472;-70
2022/10/17 11:02:17;;;;;;;3.97;2.10;;;24.30;99.90;;;;;;4892029;29;20518;-70
2022/10/17 11:04:49;;;;;;;5.73;2.07;;;24.50;99.90;;;;;;4891218;29;20465;-72
2022/10/17 11:07:23;;;;;;;2.80;1.70;;;24.70;99.90;;;;;;4892088;29;20491;-76
2022/10/17 11:09:56;;;;;;;4.93;1.70;;;25.20;99.90;;;;;;4891850;29;20455;-76
2022/10/17 11:12:27;;;;;;;3.53;2.07;;;25.20;99.90;;;;;;4891606;29;20483;-76
2022/10/17 11:14:59;;;;;;;3.43;1.77;;;25.30;99.90;;;;;;4891331;29;20470;-76
2022/10/17 11:17:34;;;;;;;4.53;1.70;;;25.30;99.90;;;;;;4891716;29;20524;-76
2022/10/17 11:20:14;;;;;;;4.90;1.60;;;25.60;99.90;;;;;;4891460;29;21349;-76
2022/10/17 11:22:46;;;;;;;2.03;1.60;;;25.80;99.90;;;;;;4891311;29;20476;-76
2022/10/17 11:25:25;;;;;;;4.80;1.80;;;26.00;99.90;;;;;;4891064;29;20478;-76
2022/10/17 11:27:51;;;;;;;5.40;1.70;;;26.40;99.90;;;;;;4891900;29;20459;-76
2022/10/17 11:30:19;;;;;;;4.13;1.70;;;26.70;99.90;;;;;;4891829;29;20479;-77
2022/10/17 11:32:49;;;;;;;5.03;1.83;;;26.60;99.90;;;;;;4891606;29;20467;-77
2022/10/17 11:35:21;;;;;;;4.17;1.67;;;27.20;99.90;;;;;;4891134;29;20465;-77
2022/10/17 11:37:53;;;;;;;2.53;1.70;;;27.60;99.90;;;;;;4893507;29;20928;-78
2022/10/17 11:40:24;;;;;;;3.70;2.10;;;27.80;99.90;;;;;;4894034;29;20507;-77
2022/10/17 11:42:57;;;;;;;3.17;1.90;;;28.00;99.90;;;;;;4893134;29;20444;-77
2022/10/17 11:45:27;;;;;;;4.17;1.90;;;28.20;99.90;;;;;;4892958;29;20459;-78
2022/10/17 11:47:58;;;;;;;2.43;1.97;;;28.50;99.90;;;;;;4895052;29;20452;-78
2022/10/17 11:50:29;;;;;;;3.47;1.70;;;28.20;99.90;;;;;;4894927;29;20531;-77
2022/10/17 11:53:02;;;;;;;4.90;1.60;;;27.90;99.90;;;;;;4895153;29;20940;-78
2022/10/17 11:55:31;;;;;;;4.03;1.90;;;27.70;99.90;;;;;;4893587;29;20448;-79
2022/10/17 11:58:22;;;;;;;3.83;1.70;;;27.70;99.90;;;;;;4894575;29;20471;-78
2022/10/17 12:01:00;;;;;;;4.90;1.90;;;27.70;99.90;;;;;;4893542;29;20500;-77
2022/10/17 12:03:39;;;;;;;4.33;1.70;;;27.60;99.90;;;;;;4892684;29;20475;-78
2022/10/17 12:06:15;;;;;;;1.60;1.50;;;27.50;99.90;;;;;;4892762;29;20472;-80
2022/10/17 12:08:51;;;;;;;13.23;2.00;;;27.50;99.90;;;;;;4893102;29;20456;-81
2022/10/17 12:11:33;;;;;;;3.90;2.00;;;27.50;99.90;;;;;;4892368;29;20989;-78
2022/10/17 12:14:01;;;;;;;4.00;2.00;;;27.80;99.90;;;;;;4892096;29;20540;-78
2022/10/17 12:16:44;;;;;;;3.57;1.80;;;28.10;99.90;;;;;;4892018;29;20468;-78
2022/10/17 12:19:31;;;;;;;4.60;1.93;;;28.60;99.90;;;;;;4892060;29;20581;-78
2022/10/17 12:22:02;;;;;;;4.60;1.80;;;28.50;99.90;;;;;;4892308;29;20544;-78
2022/10/17 12:24:42;;;;;;;3.70;1.87;;;28.40;99.90;;;;;;4891366;29;20425;-78
2022/10/17 12:27:38;;;;;;;3.80;1.77;;;28.40;99.90;;;;;;4891980;29;20917;-78
2022/10/17 12:30:20;;;;;;;3.10;1.70;;;28.70;99.90;;;;;;4869441;29;20471;-82
2022/10/17 12:32:58;;;;;;;5.60;2.03;;;28.60;99.90;;;;;;4891535;29;21073;-76
2022/10/17 12:35:27;;;;;;;9.50;2.27;;;28.50;99.90;;;;;;4891566;29;20520;-77
2022/10/17 12:38:02;;;;;;;6.00;1.60;;;28.40;99.90;;;;;;4892553;29;20472;-79
2022/10/17 12:41:00;;;;;;;6.13;1.80;;;28.30;99.90;;;;;;4892586;29;20499;-77
2022/10/17 12:43:47;;;;;;;3.67;1.53;;;28.30;99.90;;;;;;4890146;29;20471;-77
2022/10/17 12:46:49;;;;;;;3.30;1.80;;;28.40;99.90;;;;;;4889970;29;20448;-76
2022/10/17 12:49:41;;;;;;;4.93;2.10;;;28.40;99.90;;;;;;4890235;29;20838;-75
2022/10/17 12:52:28;;;;;;;2.70;1.83;;;28.40;99.90;;;;;;4890596;29;20480;-75
2022/10/17 12:54:59;;;;;;;4.90;2.00;;;28.20;99.90;;;;;;4889876;29;20516;-74
2022/10/17 12:57:37;;;;;;;2.83;1.70;;;28.20;99.90;;;;;;4890669;29;20444;-76
2022/10/17 13:00:14;;;;;;;11.93;2.73;;;28.20;99.90;;;;;;4889740;29;20504;-74
2022/10/17 13:02:41;;;;;;;6.23;2.10;;;28.20;99.90;;;;;;4889399;29;20929;-74
2022/10/17 13:05:14;;;;;;;9.93;2.53;;;28.20;99.90;;;;;;4889184;29;20463;-75
2022/10/17 13:07:43;;;;;;;6.27;1.90;;;28.20;99.90;;;;;;4890089;29;20460;-75
2022/10/17 13:10:20;;;;;;;4.37;2.13;;;28.20;99.90;;;;;;4890326;29;20959;-70
2022/10/17 13:12:50;;;;;;;5.30;2.20;;;28.20;99.90;;;;;;4890187;29;20818;-76
2022/10/17 13:15:18;;;;;;;11.70;1.97;;;28.10;99.90;;;;;;4888596;29;20471;-76
2022/10/17 13:17:54;;;;;;;6.77;2.33;;;27.90;99.90;;;;;;4889423;29;20460;-76
2022/10/17 13:20:24;;;;;;;6.03;2.40;;;27.90;99.90;;;;;;4889840;29;20504;-76
2022/10/17 13:22:51;;;;;;;6.20;2.30;;;27.90;99.90;;;;;;4889971;29;20476;-76
2022/10/17 13:25:20;;;;;;;6.40;2.07;;;27.80;99.90;;;;;;4889661;29;20464;-76
2022/10/17 13:27:49;;;;;;;4.73;2.20;;;27.80;99.90;;;;;;4890404;29;20467;-77
2022/10/17 13:30:26;;;;;;;8.93;1.90;;;27.70;99.90;;;;;;4894107;29;20464;-77
2022/10/17 13:32:53;;;;;;;2.70;2.00;;;27.60;99.90;;;;;;4893604;29;20444;-77
2022/10/17 13:35:27;;;;;;;3.90;1.97;;;27.50;99.90;;;;;;4893166;29;20536;-77
2022/10/17 13:37:55;;;;;;;6.83;2.20;;;27.30;99.90;;;;;;4893121;29;20475;-77
2022/10/17 13:40:23;;;;;;;8.03;1.90;;;27.20;99.90;;;;;;4893393;29;20567;-77
2022/10/17 13:42:53;;;;;;;4.93;2.07;;;27.10;99.90;;;;;;4894041;29;20474;-77
2022/10/17 13:45:27;;;;;;;4.67;2.30;;;27.00;99.90;;;;;;4893451;29;20468;-77
2022/10/17 13:47:54;;;;;;;6.37;2.23;;;27.00;99.90;;;;;;4893722;29;20463;-77
2022/10/17 13:50:27;;;;;;;4.33;2.20;;;27.00;99.90;;;;;;4893010;29;20458;-77
2022/10/17 13:53:18;;;;;;;6.30;2.20;;;27.00;99.90;;;;;;4893462;29;20468;-77
2022/10/17 13:55:57;;;;;;;5.97;2.20;;;26.90;99.90;;;;;;4892489;29;20913;-77
2022/10/17 13:58:27;;;;;;;2.23;2.00;;;27.00;99.90;;;;;;4893226;29;20464;-77
2022/10/17 14:00:54;;;;;;;7.33;3.40;;;27.10;99.90;;;;;;4894125;29;20575;-77
2022/10/17 14:03:22;;;;;;;10.00;1.97;;;27.10;99.90;;;;;;4895660;29;21020;-77
2022/10/17 14:06:06;;;;;;;3.03;1.90;;;27.10;99.90;;;;;;4896280;29;20479;-77
2022/10/17 14:08:34;;;;;;;7.20;2.40;;;27.10;99.90;;;;;;4896839;29;20456;-77
2022/10/17 14:11:01;;;;;;;5.37;2.30;;;27.20;99.90;;;;;;4896018;29;20543;-78
2022/10/17 14:13:34;;;;;;;8.60;2.40;;;27.20;99.90;;;;;;4894534;29;20475;-78
2022/10/17 14:16:07;;;;;;;7.83;2.30;;;27.20;99.90;;;;;;4893664;29;20476;-78
2022/10/17 14:18:36;;;;;;;4.03;2.10;;;27.20;99.90;;;;;;4893721;29;20449;-78
2022/10/17 14:21:04;;;;;;;7.90;2.27;;;27.10;99.90;;;;;;4895068;29;20508;-78
2022/10/17 14:23:37;;;;;;;4.10;2.07;;;27.10;99.90;;;;;;4892928;29;20961;-77
2022/10/17 14:26:06;;;;;;;4.40;2.27;;;27.00;99.90;;;;;;4893477;29;20468;-77
2022/10/17 14:28:36;;;;;;;7.03;2.47;;;27.10;99.90;;;;;;4892864;29;20475;-77
2022/10/17 14:31:13;;;;;;;6.23;2.10;;;27.00;99.90;;;;;;4892606;29;20484;-77
2022/10/17 14:33:45;;;;;;;4.63;2.47;;;26.90;99.90;;;;;;4892723;29;20826;-77
2022/10/17 14:36:12;;;;;;;6.70;2.33;;;27.10;99.90;;;;;;4890622;29;20459;-77
2022/10/17 14:38:47;;;;;;;5.47;2.30;;;27.10;99.90;;;;;;4892016;29;20464;-77
2022/10/17 14:41:18;;;;;;;8.57;2.20;;;27.10;99.90;;;;;;4893282;29;20689;-77
2022/10/17 14:43:54;;;;;;;7.53;2.00;;;27.20;99.90;;;;;;4895112;29;20999;-78
2022/10/17 14:46:20;;;;;;;4.13;2.20;;;27.10;99.90;;;;;;4893728;29;20516;-77
2022/10/17 14:48:52;;;;;;;4.03;2.03;;;27.20;99.90;;;;;;4893162;29;20463;-77
2022/10/17 14:51:19;;;;;;;3.87;2.17;;;27.20;99.90;;;;;;4894509;29;20476;-78
2022/10/17 14:54:01;;;;;;;7.77;2.27;;;27.30;99.90;;;;;;4893746;29;20495;-77
2022/10/17 14:56:35;;;;;;;5.33;2.53;;;27.40;99.90;;;;;;4893156;29;20472;-77
2022/10/17 14:59:04;;;;;;;11.10;2.23;;;27.50;99.90;;;;;;4893938;29;21021;-78
2022/10/17 15:01:32;;;;;;;2.40;2.17;;;27.70;99.90;;;;;;4894027;29;20510;-78
2022/10/17 15:03:59;;;;;;;4.13;2.30;;;27.80;99.90;;;;;;4893638;29;20988;-78
2022/10/17 15:06:29;;;;;;;4.40;2.10;;;28.00;99.90;;;;;;4892716;29;20464;-76
2022/10/17 15:08:58;;;;;;;4.60;2.13;;;28.00;99.90;;;;;;4892063;29;20471;-76
2022/10/17 15:11:25;;;;;;;3.57;2.13;;;28.00;99.90;;;;;;4891822;29;20480;-76
2022/10/17 15:13:51;;;;;;;4.17;2.10;;;27.90;99.90;;;;;;4891700;29;21000;-76
2022/10/17 15:16:21;;;;;;;4.33;2.00;;;27.80;99.90;;;;;;4891403;29;20483;-76
2022/10/17 15:18:49;;;;;;;4.80;2.30;;;27.70;99.90;;;;;;4891734;29;20838;-77
2022/10/17 15:21:18;;;;;;;4.97;1.93;;;27.50;99.90;;;;;;4891788;29;20508;-76
2022/10/17 15:23:45;;;;;;;6.20;2.00;;;27.40;99.90;;;;;;4892050;29;20502;-77
2022/10/17 15:26:15;;;;;;;7.20;2.10;;;27.20;99.90;;;;;;4890919;29;20460;-76
2022/10/17 15:28:42;;;;;;;4.10;1.97;;;27.00;99.90;;;;;;4892015;29;20464;-76
2022/10/17 15:31:11;;;;;;;8.47;2.70;;;26.90;99.90;;;;;;4891653;29;20484;-77
2022/10/17 15:33:40;;;;;;;5.20;2.30;;;26.70;99.90;;;;;;4891452;29;20976;-78
2022/10/17 15:36:18;;;;;;;7.13;2.60;;;26.50;99.90;;;;;;4891437;29;20961;-77
2022/10/17 15:38:48;;;;;;;8.50;2.30;;;26.40;99.90;;;;;;4892141;29;20456;-76
2022/10/17 15:41:15;;;;;;;6.70;2.63;;;26.20;99.90;;;;;;4890416;29;20515;-76
2022/10/17 15:43:42;;;;;;;7.00;2.50;;;26.10;99.90;;;;;;4890051;29;20483;-79
2022/10/17 15:46:14;;;;;;;6.87;2.13;;;25.90;99.90;;;;;;4890028;29;20908;-76
2022/10/17 15:48:43;;;;;;;6.63;2.60;;;25.70;99.90;;;;;;4900510;29;20452;-77
2022/10/17 15:51:10;;;;;;;6.13;2.50;;;25.60;99.90;;;;;;4897492;29;20479;-77
2022/10/17 15:53:37;;;;;;;5.57;2.27;;;25.50;99.90;;;;;;4895817;29;20464;-77
2022/10/17 15:56:05;;;;;;;4.13;2.23;;;25.40;99.90;;;;;;4891111;29;20475;-76
2022/10/17 15:58:35;;;;;;;3.70;2.50;;;25.20;99.90;;;;;;4891286;29;20471;-76
2022/10/17 16:01:03;;;;;;;8.43;3.40;;;25.10;99.90;;;;;;4888647;29;20503;-76
2022/10/17 16:03:30;;;;;;;4.27;2.60;;;25.00;99.90;;;;;;4888294;29;20468;-77
2022/10/17 16:05:58;;;;;;;9.43;3.13;;;24.80;99.90;;;;;;4904421;29;21034;-78
2022/10/17 16:08:25;;;;;;;9.27;3.90;;;24.70;99.90;;;;;;4908682;29;20471;-77
2022/10/17 16:10:53;;;;;;;8.30;3.03;;;24.60;99.90;;;;;;4908438;29;20542;-76
2022/10/17 16:13:22;;;;;;;9.43;3.10;;;24.50;99.90;;;;;;4908931;29;20459;-76
2022/10/17 16:15:49;;;;;;;5.47;3.57;;;24.40;99.90;;;;;;4899522;29;20463;-76
2022/10/17 16:18:16;;;;;;;8.50;3.73;;;24.30;99.90;;;;;;4889505;29;20468;-76
2022/10/17 16:20:43;;;;;;;7.90;2.87;;;24.20;99.90;;;;;;4889797;29;20504;-77
2022/10/17 16:23:13;;;;;;;12.90;2.57;;;24.10;99.90;;;;;;4889914;29;20895;-75
2022/10/17 16:25:40;;;;;;;8.53;3.07;;;24.00;99.90;;;;;;4888579;29;20460;-76
2022/10/17 16:28:07;;;;;;;7.10;2.87;;;23.90;99.90;;;;;;4890149;29;20479;-75
2022/10/17 16:30:37;;;;;;;6.97;2.50;;;23.80;99.90;;;;;;4892148;29;20479;-77
2022/10/17 16:33:04;;;;;;;8.17;2.80;;;23.60;99.90;;;;;;4908704;29;20970;-76
2022/10/17 16:35:31;;;;;;;9.63;3.33;;;23.50;99.90;;;;;;4908609;29;20467;-75
2022/10/17 16:37:58;;;;;;;6.27;3.20;;;23.40;99.90;;;;;;4909537;29;20456;-76
2022/10/17 16:40:26;;;;;;;6.10;2.83;;;23.30;99.90;;;;;;4908823;29;20482;-76
2022/10/17 16:42:53;;;;;;;6.70;2.83;;;23.20;99.90;;;;;;4909427;29;20550;-77
2022/10/17 16:45:22;;;;;;;10.00;3.00;;;23.00;99.90;;;;;;4909025;29;20474;-77
2022/10/17 16:47:49;;;;;;;6.30;2.83;;;22.90;99.90;;;;;;4909271;29;20463;-75
2022/10/17 16:50:17;;;;;;;10.23;2.77;;;22.80;99.90;;;;;;4910042;29;20467;-77
2022/10/17 16:52:44;;;;;;;7.93;3.07;;;22.70;99.90;;;;;;4909145;29;20471;-75
2022/10/17 16:55:10;;;;;;;5.67;2.60;;;22.60;99.90;;;;;;4907118;29;20776;-76
2022/10/17 16:57:39;;;;;;;8.37;3.30;;;22.40;99.90;;;;;;4908684;29;20620;-76
2022/10/17 17:00:07;;;;;;;11.17;3.17;;;22.40;99.90;;;;;;4909426;29;20825;-77
2022/10/17 17:02:34;;;;;;;8.83;3.73;;;22.30;99.90;;;;;;4908563;29;20509;-73